sensor_id;sensor_type;location;lat;lon;timestamp;temperature;humidity
29777;DHT22;16677;52.224;7.484;2022-12-18T00:01:17;-5.70;99.90
29777;DHT22;16677;52.224;7.484;2022-12-18T00:03:45;-5.90;99.90
29777;DHT22;16677;52.224;7.484;2022-12-18T00:06:12;-5.80;99.90
29777;DHT22;16677;52.224;7.484;2022-12-18T00:08:41;-6.00;99.90
29777;DHT22;16677;52.224;7.484;2022-12-18T00:11:12;-6.10;99.90
29777;DHT22;16677;52.224;7.484;2022-12-18T00:13:40;-6.10;99.90
29777;DHT22;16677;52.224;7.484;2022-12-18T00:16:10;-6.10;99.90
29777;DHT22;16677;52.224;7.484;2022-12-18T00:18:38;-6.20;99.90
29777;DHT22;16677;52.224;7.484;2022-12-18T00:21:08;-6.20;99.90
29777;DHT22;16677;52.224;7.484;2022-12-18T00:23:36;-6.20;99.90
29777;DHT22;16677;52.224;7.484;2022-12-18T00:26:11;-6.20;99.90
29777;DHT22;16677;52.224;7.484;2022-12-18T00:28:38;-6.30;99.90
29777;DHT22;16677;52.224;7.484;2022-12-18T00:31:08;-6.20;99.90
29777;DHT22;16677;52.224;7.484;2022-12-18T00:33:35;-6.40;99.90
29777;DHT22;16677;52.224;7.484;2022-12-18T00:36:10;-6.40;99.90
29777;DHT22;16677;52.224;7.484;2022-12-18T00:38:37;-6.50;99.90
29777;DHT22;16677;52.224;7.484;2022-12-18T00:41:04;-6.60;99.90
29777;DHT22;16677;52.224;7.484;2022-12-18T00:43:34;-6.60;99.90
29777;DHT22;16677;52.224;7.484;2022-12-18T00:46:01;-6.60;99.90
29777;DHT22;16677;52.224;7.484;2022-12-18T00:48:28;-6.60;99.90
29777;DHT22;16677;52.224;7.484;2022-12-18T00:50:55;-6.70;99.90
29777;DHT22;16677;52.224;7.484;2022-12-18T00:53:21;-6.60;99.90
29777;DHT22;16677;52.224;7.484;2022-12-18T00:55:48;-6.70;99.90
29777;DHT22;16677;52.224;7.484;2022-12-18T00:58:16;-6.70;99.90
29777;DHT22;16677;52.224;7.484;2022-12-18T01:00:43;-6.70;99.90
29777;DHT22;16677;52.224;7.484;2022-12-18T01:03:12;-6.80;99.90
29777;DHT22;16677;52.224;7.484;2022-12-18T01:05:40;-6.80;99.90
29777;DHT22;16677;52.224;7.484;2022-12-18T01:08:07;-6.70;99.90
29777;DHT22;16677;52.224;7.484;2022-12-18T01:10:34;-6.80;99.90
29777;DHT22;16677;52.224;7.484;2022-12-18T01:13:01;-6.80;99.90
29777;DHT22;16677;52.224;7.484;2022-12-18T01:15:27;-6.80;99.90
29777;DHT22;16677;52.224;7.484;2022-12-18T01:17:54;-6.90;99.90
29777;DHT22;16677;52.224;7.484;2022-12-18T01:20:21;-6.90;99.90
29777;DHT22;16677;52.224;7.484;2022-12-18T01:22:47;-7.00;99.90
29777;DHT22;16677;52.224;7.484;2022-12-18T01:25:14;-6.90;99.90
29777;DHT22;16677;52.224;7.484;2022-12-18T01:27:41;-7.00;99.90
29777;DHT22;16677;52.224;7.484;2022-12-18T01:30:08;-6.90;99.90
29777;DHT22;16677;52.224;7.484;2022-12-18T01:32:35;-7.00;99.90
29777;DHT22;16677;52.224;7.484;2022-12-18T01:35:02;-6.90;99.90
29777;DHT22;16677;52.224;7.484;2022-12-18T01:37:29;-7.00;99.90
29777;DHT22;16677;52.224;7.484;2022-12-18T01:39:56;-7.00;99.90
29777;DHT22;16677;52.224;7.484;2022-12-18T01:42:22;-7.00;99.90
29777;DHT22;16677;52.224;7.484;2022-12-18T01:47:27;-7.00;99.90
29777;DHT22;16677;52.224;7.484;2022-12-18T01:49:58;-7.30;99.90
29777;DHT22;16677;52.224;7.484;2022-12-18T01:52:26;-7.20;99.90
29777;DHT22;16677;52.224;7.484;2022-12-18T01:54:54;-7.30;99.90
29777;DHT22;16677;52.224;7.484;2022-12-18T01:57:22;-7.30;99.90
29777;DHT22;16677;52.224;7.484;2022-12-18T01:59:50;-7.20;99.90
29777;DHT22;16677;52.224;7.484;2022-12-18T02:02:19;-7.30;99.90
29777;DHT22;16677;52.224;7.484;2022-12-18T02:04:47;-7.30;99.90
29777;DHT22;16677;52.224;7.484;2022-12-18T02:12:58;-7.30;99.90
29777;DHT22;16677;52.224;7.484;2022-12-18T02:17:31;-7.30;99.90
29777;DHT22;16677;52.224;7.484;2022-12-18T02:22:48;-7.30;99.90
29777;DHT22;16677;52.224;7.484;2022-12-18T02:25:23;-7.20;99.90
29777;DHT22;16677;52.224;7.484;2022-12-18T02:27:51;-7.20;99.90
29777;DHT22;16677;52.224;7.484;2022-12-18T02:30:18;-7.30;99.90
29777;DHT22;16677;52.224;7.484;2022-12-18T02:32:46;-7.30;99.90
29777;DHT22;16677;52.224;7.484;2022-12-18T02:35:16;-7.30;99.90
29777;DHT22;16677;52.224;7.484;2022-12-18T02:37:45;-7.30;99.90
29777;DHT22;16677;52.224;7.484;2022-12-18T02:40:14;-7.40;99.90
29777;DHT22;16677;52.224;7.484;2022-12-18T02:42:41;-7.40;99.90
29777;DHT22;16677;52.224;7.484;2022-12-18T02:45:08;-7.40;99.90
29777;DHT22;16677;52.224;7.484;2022-12-18T02:47:39;-7.40;99.90
29777;DHT22;16677;52.224;7.484;2022-12-18T02:57:39;-7.40;99.90
29777;DHT22;16677;52.224;7.484;2022-12-18T03:00:13;-7.50;99.90
29777;DHT22;16677;52.224;7.484;2022-12-18T03:03:16;-7.40;99.90
29777;DHT22;16677;52.224;7.484;2022-12-18T03:05:36;-7.40;99.90
29777;DHT22;16677;52.224;7.484;2022-12-18T03:08:09;-7.50;99.90
29777;DHT22;16677;52.224;7.484;2022-12-18T03:10:38;-7.40;99.90
29777;DHT22;16677;52.224;7.484;2022-12-18T03:13:13;-7.40;99.90
29777;DHT22;16677;52.224;7.484;2022-12-18T03:15:47;-7.40;99.90
29777;DHT22;16677;52.224;7.484;2022-12-18T03:18:21;-7.40;99.90
29777;DHT22;16677;52.224;7.484;2022-12-18T03:20:50;-7.40;99.90
29777;DHT22;16677;52.224;7.484;2022-12-18T03:23:19;-7.40;99.90
29777;DHT22;16677;52.224;7.484;2022-12-18T03:25:52;-7.50;99.90
29777;DHT22;16677;52.224;7.484;2022-12-18T03:28:21;-7.50;99.90
29777;DHT22;16677;52.224;7.484;2022-12-18T03:30:53;-7.50;99.90
29777;DHT22;16677;52.224;7.484;2022-12-18T03:33:27;-7.50;99.90
29777;DHT22;16677;52.224;7.484;2022-12-18T03:35:56;-7.40;99.90
29777;DHT22;16677;52.224;7.484;2022-12-18T03:38:22;-7.50;99.90
29777;DHT22;16677;52.224;7.484;2022-12-18T03:46:02;-7.60;99.90
29777;DHT22;16677;52.224;7.484;2022-12-18T03:48:31;-7.60;99.90
29777;DHT22;16677;52.224;7.484;2022-12-18T03:51:03;-7.60;99.90
29777;DHT22;16677;52.224;7.484;2022-12-18T03:53:40;-7.70;99.90
29777;DHT22;16677;52.224;7.484;2022-12-18T03:56:09;-7.70;99.90
29777;DHT22;16677;52.224;7.484;2022-12-18T03:58:36;-7.70;99.90
29777;DHT22;16677;52.224;7.484;2022-12-18T04:01:05;-7.70;99.90
29777;DHT22;16677;52.224;7.484;2022-12-18T04:03:32;-7.70;99.90
29777;DHT22;16677;52.224;7.484;2022-12-18T04:06:02;-7.60;99.90
29777;DHT22;16677;52.224;7.484;2022-12-18T04:08:29;-7.60;99.90
29777;DHT22;16677;52.224;7.484;2022-12-18T04:10:56;-7.70;99.90
29777;DHT22;16677;52.224;7.484;2022-12-18T04:13:23;-7.80;99.90
29777;DHT22;16677;52.224;7.484;2022-12-18T04:15:51;-7.90;99.90
29777;DHT22;16677;52.224;7.484;2022-12-18T04:18:18;-7.80;99.90
29777;DHT22;16677;52.224;7.484;2022-12-18T04:20:45;-7.80;99.90
29777;DHT22;16677;52.224;7.484;2022-12-18T04:23:12;-7.80;99.90
29777;DHT22;16677;52.224;7.484;2022-12-18T04:25:38;-7.80;99.90
29777;DHT22;16677;52.224;7.484;2022-12-18T04:28:05;-7.80;99.90
29777;DHT22;16677;52.224;7.484;2022-12-18T04:30:32;-7.80;99.90
29777;DHT22;16677;52.224;7.484;2022-12-18T04:32:59;-7.80;99.90
29777;DHT22;16677;52.224;7.484;2022-12-18T04:35:26;-7.80;99.90
29777;DHT22;16677;52.224;7.484;2022-12-18T04:37:53;-7.90;99.90
29777;DHT22;16677;52.224;7.484;2022-12-18T04:40:19;-8.00;99.90
29777;DHT22;16677;52.224;7.484;2022-12-18T04:42:46;-8.00;99.90
29777;DHT22;16677;52.224;7.484;2022-12-18T04:45:13;-8.00;99.90
29777;DHT22;16677;52.224;7.484;2022-12-18T04:47:40;-7.90;99.90
29777;DHT22;16677;52.224;7.484;2022-12-18T04:50:07;-7.80;99.90
29777;DHT22;16677;52.224;7.484;2022-12-18T04:52:34;-7.80;99.90
29777;DHT22;16677;52.224;7.484;2022-12-18T04:55:01;-7.80;99.90
29777;DHT22;16677;52.224;7.484;2022-12-18T04:57:28;-7.80;99.90
29777;DHT22;16677;52.224;7.484;2022-12-18T04:59:55;-7.80;99.90
29777;DHT22;16677;52.224;7.484;2022-12-18T05:02:22;-7.80;99.90
29777;DHT22;16677;52.224;7.484;2022-12-18T05:04:49;-7.80;99.90
29777;DHT22;16677;52.224;7.484;2022-12-18T05:07:16;-7.80;99.90
29777;DHT22;16677;52.224;7.484;2022-12-18T05:09:43;-8.00;99.90
29777;DHT22;16677;52.224;7.484;2022-12-18T05:12:10;-8.10;99.90
29777;DHT22;16677;52.224;7.484;2022-12-18T05:14:37;-8.10;99.90
29777;DHT22;16677;52.224;7.484;2022-12-18T05:17:04;-8.00;99.90
29777;DHT22;16677;52.224;7.484;2022-12-18T05:19:31;-8.00;99.90
29777;DHT22;16677;52.224;7.484;2022-12-18T05:22:00;-8.00;99.90
29777;DHT22;16677;52.224;7.484;2022-12-18T05:24:28;-8.10;99.90
29777;DHT22;16677;52.224;7.484;2022-12-18T05:26:55;-8.00;99.90
29777;DHT22;16677;52.224;7.484;2022-12-18T05:29:22;-8.00;99.90
29777;DHT22;16677;52.224;7.484;2022-12-18T05:31:49;-8.00;99.90
29777;DHT22;16677;52.224;7.484;2022-12-18T05:34:16;-8.20;99.90
29777;DHT22;16677;52.224;7.484;2022-12-18T05:36:43;-8.20;99.90
29777;DHT22;16677;52.224;7.484;2022-12-18T05:39:10;-8.30;99.90
29777;DHT22;16677;52.224;7.484;2022-12-18T05:41:37;-8.30;99.90
29777;DHT22;16677;52.224;7.484;2022-12-18T05:44:04;-8.30;99.90
29777;DHT22;16677;52.224;7.484;2022-12-18T05:46:31;-8.20;99.90
29777;DHT22;16677;52.224;7.484;2022-12-18T05:49:01;-8.40;99.90
29777;DHT22;16677;52.224;7.484;2022-12-18T05:51:28;-8.20;99.90
29777;DHT22;16677;52.224;7.484;2022-12-18T05:53:55;-8.30;99.90
29777;DHT22;16677;52.224;7.484;2022-12-18T05:56:23;-8.10;99.90
29777;DHT22;16677;52.224;7.484;2022-12-18T05:58:53;-8.20;99.90
29777;DHT22;16677;52.224;7.484;2022-12-18T06:01:23;-8.20;99.90
29777;DHT22;16677;52.224;7.484;2022-12-18T06:03:50;-8.20;99.90
29777;DHT22;16677;52.224;7.484;2022-12-18T06:06:26;-8.00;99.90
29777;DHT22;16677;52.224;7.484;2022-12-18T06:08:54;-8.20;99.90
29777;DHT22;16677;52.224;7.484;2022-12-18T06:11:24;-8.20;99.90
29777;DHT22;16677;52.224;7.484;2022-12-18T06:13:53;-8.20;99.90
29777;DHT22;16677;52.224;7.484;2022-12-18T06:16:24;-8.20;99.90
29777;DHT22;16677;52.224;7.484;2022-12-18T06:18:51;-8.30;99.90
29777;DHT22;16677;52.224;7.484;2022-12-18T06:21:18;-8.30;99.90
29777;DHT22;16677;52.224;7.484;2022-12-18T06:23:46;-8.30;99.90
29777;DHT22;16677;52.224;7.484;2022-12-18T06:26:13;-8.30;99.90
29777;DHT22;16677;52.224;7.484;2022-12-18T06:28:41;-8.30;99.90
29777;DHT22;16677;52.224;7.484;2022-12-18T06:31:08;-8.40;99.90
29777;DHT22;16677;52.224;7.484;2022-12-18T06:33:36;-8.30;99.90
29777;DHT22;16677;52.224;7.484;2022-12-18T06:36:06;-8.30;99.90
29777;DHT22;16677;52.224;7.484;2022-12-18T06:38:35;-8.20;99.90
29777;DHT22;16677;52.224;7.484;2022-12-18T06:41:14;-8.30;99.90
29777;DHT22;16677;52.224;7.484;2022-12-18T06:43:42;-8.40;99.90
29777;DHT22;16677;52.224;7.484;2022-12-18T06:46:12;-8.30;99.90
29777;DHT22;16677;52.224;7.484;2022-12-18T06:48:39;-8.30;99.90
29777;DHT22;16677;52.224;7.484;2022-12-18T06:51:06;-8.10;99.90
29777;DHT22;16677;52.224;7.484;2022-12-18T06:53:34;-8.20;99.90
29777;DHT22;16677;52.224;7.484;2022-12-18T06:56:06;-8.00;99.90
29777;DHT22;16677;52.224;7.484;2022-12-18T06:58:36;-8.00;99.90
29777;DHT22;16677;52.224;7.484;2022-12-18T07:01:05;-8.00;99.90
29777;DHT22;16677;52.224;7.484;2022-12-18T07:06:02;-8.10;99.90
29777;DHT22;16677;52.224;7.484;2022-12-18T07:08:30;-8.10;99.90
29777;DHT22;16677;52.224;7.484;2022-12-18T07:10:58;-8.10;99.90
29777;DHT22;16677;52.224;7.484;2022-12-18T07:13:25;-8.20;99.90
29777;DHT22;16677;52.224;7.484;2022-12-18T07:15:53;-8.20;99.90
29777;DHT22;16677;52.224;7.484;2022-12-18T07:18:20;-8.20;99.90
29777;DHT22;16677;52.224;7.484;2022-12-18T07:20:47;-8.10;99.90
29777;DHT22;16677;52.224;7.484;2022-12-18T07:23:14;-7.90;99.90
29777;DHT22;16677;52.224;7.484;2022-12-18T07:25:41;-7.90;99.90
29777;DHT22;16677;52.224;7.484;2022-12-18T07:28:08;-7.70;99.90
29777;DHT22;16677;52.224;7.484;2022-12-18T07:30:42;-7.70;99.90
29777;DHT22;16677;52.224;7.484;2022-12-18T07:33:09;-7.60;99.90
29777;DHT22;16677;52.224;7.484;2022-12-18T07:35:36;-7.30;99.90
29777;DHT22;16677;52.224;7.484;2022-12-18T07:38:03;-7.30;99.90
29777;DHT22;16677;52.224;7.484;2022-12-18T07:40:30;-7.10;99.90
29777;DHT22;16677;52.224;7.484;2022-12-18T07:42:57;-7.10;99.90
29777;DHT22;16677;52.224;7.484;2022-12-18T07:45:24;-7.00;99.90
29777;DHT22;16677;52.224;7.484;2022-12-18T07:47:51;-7.00;99.90
29777;DHT22;16677;52.224;7.484;2022-12-18T07:50:18;-6.90;99.90
29777;DHT22;16677;52.224;7.484;2022-12-18T07:52:45;-6.60;99.90
29777;DHT22;16677;52.224;7.484;2022-12-18T07:55:12;-6.50;99.90
29777;DHT22;16677;52.224;7.484;2022-12-18T07:57:39;-6.40;99.90
29777;DHT22;16677;52.224;7.484;2022-12-18T08:00:18;-6.30;99.90
29777;DHT22;16677;52.224;7.484;2022-12-18T08:02:47;-6.10;99.90
29777;DHT22;16677;52.224;7.484;2022-12-18T08:05:14;-5.90;99.90
29777;DHT22;16677;52.224;7.484;2022-12-18T08:07:41;-5.70;99.90
29777;DHT22;16677;52.224;7.484;2022-12-18T08:10:08;-5.70;99.90
29777;DHT22;16677;52.224;7.484;2022-12-18T08:12:35;-5.60;99.90
29777;DHT22;16677;52.224;7.484;2022-12-18T08:15:02;-5.50;99.90
29777;DHT22;16677;52.224;7.484;2022-12-18T08:17:29;-5.40;99.90
29777;DHT22;16677;52.224;7.484;2022-12-18T08:19:55;-5.30;99.90
29777;DHT22;16677;52.224;7.484;2022-12-18T08:22:22;-5.20;99.90
29777;DHT22;16677;52.224;7.484;2022-12-18T08:24:49;-5.10;99.90
29777;DHT22;16677;52.224;7.484;2022-12-18T08:27:16;-5.10;99.90
29777;DHT22;16677;52.224;7.484;2022-12-18T08:29:58;-5.00;99.90
29777;DHT22;16677;52.224;7.484;2022-12-18T08:32:25;-4.90;99.90
29777;DHT22;16677;52.224;7.484;2022-12-18T08:34:53;-4.80;99.90
29777;DHT22;16677;52.224;7.484;2022-12-18T08:37:19;-4.80;99.90
29777;DHT22;16677;52.224;7.484;2022-12-18T08:39:46;-4.70;99.90
29777;DHT22;16677;52.224;7.484;2022-12-18T08:42:13;-4.60;99.90
29777;DHT22;16677;52.224;7.484;2022-12-18T08:44:58;-4.60;99.90
29777;DHT22;16677;52.224;7.484;2022-12-18T08:47:25;-4.50;99.90
29777;DHT22;16677;52.224;7.484;2022-12-18T08:49:52;-4.40;99.90
29777;DHT22;16677;52.224;7.484;2022-12-18T08:52:19;-4.20;99.90
29777;DHT22;16677;52.224;7.484;2022-12-18T08:54:46;-4.30;99.90
29777;DHT22;16677;52.224;7.484;2022-12-18T08:57:13;-4.20;99.90
29777;DHT22;16677;52.224;7.484;2022-12-18T08:59:40;-4.10;99.90
29777;DHT22;16677;52.224;7.484;2022-12-18T09:02:10;-4.00;99.90
29777;DHT22;16677;52.224;7.484;2022-12-18T09:04:37;-3.90;99.90
29777;DHT22;16677;52.224;7.484;2022-12-18T09:07:04;-3.70;99.90
29777;DHT22;16677;52.224;7.484;2022-12-18T09:09:31;-3.70;99.90
29777;DHT22;16677;52.224;7.484;2022-12-18T09:11:58;-3.70;99.90
29777;DHT22;16677;52.224;7.484;2022-12-18T09:14:26;-3.70;99.90
29777;DHT22;16677;52.224;7.484;2022-12-18T09:16:53;-3.70;99.90
29777;DHT22;16677;52.224;7.484;2022-12-18T09:19:20;-3.40;99.90
29777;DHT22;16677;52.224;7.484;2022-12-18T09:21:47;-3.30;99.90
29777;DHT22;16677;52.224;7.484;2022-12-18T09:24:15;-3.40;99.90
29777;DHT22;16677;52.224;7.484;2022-12-18T09:26:43;-3.40;99.90
29777;DHT22;16677;52.224;7.484;2022-12-18T09:29:14;-3.30;99.90
29777;DHT22;16677;52.224;7.484;2022-12-18T09:31:42;-3.20;99.90
29777;DHT22;16677;52.224;7.484;2022-12-18T09:34:09;-3.10;99.90
29777;DHT22;16677;52.224;7.484;2022-12-18T09:36:36;-3.10;99.90
29777;DHT22;16677;52.224;7.484;2022-12-18T09:39:03;-2.90;99.90
29777;DHT22;16677;52.224;7.484;2022-12-18T09:44:37;-2.80;99.90
29777;DHT22;16677;52.224;7.484;2022-12-18T09:47:25;-2.80;99.90
29777;DHT22;16677;52.224;7.484;2022-12-18T09:49:58;-2.70;99.90
29777;DHT22;16677;52.224;7.484;2022-12-18T09:52:46;-2.60;99.90
29777;DHT22;16677;52.224;7.484;2022-12-18T09:55:36;-2.40;99.90
29777;DHT22;16677;52.224;7.484;2022-12-18T09:58:19;-2.30;99.90
29777;DHT22;16677;52.224;7.484;2022-12-18T10:00:47;-2.30;99.90
29777;DHT22;16677;52.224;7.484;2022-12-18T10:03:15;-2.00;99.90
29777;DHT22;16677;52.224;7.484;2022-12-18T10:05:58;-2.00;99.90
29777;DHT22;16677;52.224;7.484;2022-12-18T10:17:23;-1.70;99.90
29777;DHT22;16677;52.224;7.484;2022-12-18T10:19:58;-1.60;99.90
29777;DHT22;16677;52.224;7.484;2022-12-18T10:25:04;-1.50;99.90
29777;DHT22;16677;52.224;7.484;2022-12-18T10:27:32;-1.50;99.90
29777;DHT22;16677;52.224;7.484;2022-12-18T10:30:00;-1.50;99.90
29777;DHT22;16677;52.224;7.484;2022-12-18T10:32:30;-1.50;99.90
29777;DHT22;16677;52.224;7.484;2022-12-18T10:34:58;-1.50;99.90
29777;DHT22;16677;52.224;7.484;2022-12-18T10:37:29;-1.50;99.90
29777;DHT22;16677;52.224;7.484;2022-12-18T10:40:15;-1.40;99.90
29777;DHT22;16677;52.224;7.484;2022-12-18T10:43:11;-1.40;99.90
29777;DHT22;16677;52.224;7.484;2022-12-18T10:45:38;-1.30;99.90
29777;DHT22;16677;52.224;7.484;2022-12-18T10:48:18;-1.30;99.90
29777;DHT22;16677;52.224;7.484;2022-12-18T10:50:48;-1.20;99.90
29777;DHT22;16677;52.224;7.484;2022-12-18T10:53:37;-1.30;99.90
29777;DHT22;16677;52.224;7.484;2022-12-18T10:56:05;-1.20;99.90
29777;DHT22;16677;52.224;7.484;2022-12-18T10:58:36;-1.10;99.90
29777;DHT22;16677;52.224;7.484;2022-12-18T11:04:04;-1.00;99.90
29777;DHT22;16677;52.224;7.484;2022-12-18T11:06:34;-0.90;99.90
29777;DHT22;16677;52.224;7.484;2022-12-18T11:09:23;-0.80;99.90
29777;DHT22;16677;52.224;7.484;2022-12-18T11:11:52;-0.70;99.90
29777;DHT22;16677;52.224;7.484;2022-12-18T11:14:29;-0.70;99.90
29777;DHT22;16677;52.224;7.484;2022-12-18T11:16:59;-0.60;99.90
29777;DHT22;16677;52.224;7.484;2022-12-18T11:22:55;-0.60;99.90
29777;DHT22;16677;52.224;7.484;2022-12-18T11:25:24;-0.50;99.90
29777;DHT22;16677;52.224;7.484;2022-12-18T11:28:02;-0.50;99.90
29777;DHT22;16677;52.224;7.484;2022-12-18T11:30:36;-0.40;99.90
29777;DHT22;16677;52.224;7.484;2022-12-18T11:33:13;-0.40;99.90
29777;DHT22;16677;52.224;7.484;2022-12-18T11:41:29;-0.20;99.90
29777;DHT22;16677;52.224;7.484;2022-12-18T11:44:24;-0.20;99.90
29777;DHT22;16677;52.224;7.484;2022-12-18T11:46:57;-0.20;99.90
29777;DHT22;16677;52.224;7.484;2022-12-18T11:49:33;-0.40;99.90
29777;DHT22;16677;52.224;7.484;2022-12-18T11:52:15;-0.40;99.90
29777;DHT22;16677;52.224;7.484;2022-12-18T11:54:43;-0.30;99.90
29777;DHT22;16677;52.224;7.484;2022-12-18T11:57:25;-0.40;99.90
29777;DHT22;16677;52.224;7.484;2022-12-18T12:00:11;-0.30;99.90
29777;DHT22;16677;52.224;7.484;2022-12-18T12:16:22;-0.20;99.90
29777;DHT22;16677;52.224;7.484;2022-12-18T12:19:01;-0.30;99.90
29777;DHT22;16677;52.224;7.484;2022-12-18T12:27:36;-0.30;99.90
29777;DHT22;16677;52.224;7.484;2022-12-18T12:30:10;-0.20;99.90
29777;DHT22;16677;52.224;7.484;2022-12-18T12:38:39;-0.10;99.90
29777;DHT22;16677;52.224;7.484;2022-12-18T12:41:20;-0.10;99.90
29777;DHT22;16677;52.224;7.484;2022-12-18T12:44:09;-0.10;99.90
29777;DHT22;16677;52.224;7.484;2022-12-18T12:46:41;-0.20;99.90
29777;DHT22;16677;52.224;7.484;2022-12-18T12:49:16;-0.20;99.90
29777;DHT22;16677;52.224;7.484;2022-12-18T12:51:48;-0.10;99.90
29777;DHT22;16677;52.224;7.484;2022-12-18T12:54:23;-0.20;99.90
29777;DHT22;16677;52.224;7.484;2022-12-18T12:57:01;-0.20;99.90
29777;DHT22;16677;52.224;7.484;2022-12-18T12:59:56;-0.10;99.90
29777;DHT22;16677;52.224;7.484;2022-12-18T13:05:24;-0.10;99.90
29777;DHT22;16677;52.224;7.484;2022-12-18T13:08:05;-0.10;99.90
29777;DHT22;16677;52.224;7.484;2022-12-18T13:10:39;-0.10;99.90
29777;DHT22;16677;52.224;7.484;2022-12-18T13:15:44;-0.10;99.90
29777;DHT22;16677;52.224;7.484;2022-12-18T13:18:20;0.00;99.90
29777;DHT22;16677;52.224;7.484;2022-12-18T13:23:31;0.10;99.90
29777;DHT22;16677;52.224;7.484;2022-12-18T13:34:24;0.10;1.00
29777;DHT22;16677;52.224;7.484;2022-12-18T13:36:56;0.10;1.00
29777;DHT22;16677;52.224;7.484;2022-12-18T13:39:33;0.10;1.00
29777;DHT22;16677;52.224;7.484;2022-12-18T13:44:38;0.10;1.00
29777;DHT22;16677;52.224;7.484;2022-12-18T13:47:27;0.20;1.00
29777;DHT22;16677;52.224;7.484;2022-12-18T13:49:57;0.20;1.00
29777;DHT22;16677;52.224;7.484;2022-12-18T13:52:27;0.20;1.00
29777;DHT22;16677;52.224;7.484;2022-12-18T13:54:56;0.20;1.00
29777;DHT22;16677;52.224;7.484;2022-12-18T13:57:33;0.20;1.00
29777;DHT22;16677;52.224;7.484;2022-12-18T14:00:23;0.20;1.00
29777;DHT22;16677;52.224;7.484;2022-12-18T14:02:51;0.20;1.00
29777;DHT22;16677;52.224;7.484;2022-12-18T14:05:26;0.40;1.00
29777;DHT22;16677;52.224;7.484;2022-12-18T14:07:55;0.30;1.00
29777;DHT22;16677;52.224;7.484;2022-12-18T14:10:25;0.20;1.00
29777;DHT22;16677;52.224;7.484;2022-12-18T14:13:32;0.20;1.00
29777;DHT22;16677;52.224;7.484;2022-12-18T14:16:03;0.30;1.00
29777;DHT22;16677;52.224;7.484;2022-12-18T14:21:30;0.30;1.00
29777;DHT22;16677;52.224;7.484;2022-12-18T14:24:21;0.30;1.00
29777;DHT22;16677;52.224;7.484;2022-12-18T14:26:49;0.30;1.00
29777;DHT22;16677;52.224;7.484;2022-12-18T14:29:30;0.30;1.00
29777;DHT22;16677;52.224;7.484;2022-12-18T14:32:13;0.30;1.00
29777;DHT22;16677;52.224;7.484;2022-12-18T14:34:52;0.30;1.00
29777;DHT22;16677;52.224;7.484;2022-12-18T14:37:23;0.20;1.00
29777;DHT22;16677;52.224;7.484;2022-12-18T14:42:21;0.20;1.00
29777;DHT22;16677;52.224;7.484;2022-12-18T14:44:48;0.20;1.00
29777;DHT22;16677;52.224;7.484;2022-12-18T14:47:34;0.30;1.00
29777;DHT22;16677;52.224;7.484;2022-12-18T14:50:01;0.30;1.00
29777;DHT22;16677;52.224;7.484;2022-12-18T14:52:31;0.30;1.00
29777;DHT22;16677;52.224;7.484;2022-12-18T14:54:58;0.30;1.00
29777;DHT22;16677;52.224;7.484;2022-12-18T14:57:30;0.30;1.00
29777;DHT22;16677;52.224;7.484;2022-12-18T15:00:07;0.40;1.00
29777;DHT22;16677;52.224;7.484;2022-12-18T15:02:41;0.30;1.00
29777;DHT22;16677;52.224;7.484;2022-12-18T15:05:24;0.40;1.00
29777;DHT22;16677;52.224;7.484;2022-12-18T15:07:53;0.50;1.00
29777;DHT22;16677;52.224;7.484;2022-12-18T15:10:29;0.30;1.00
29777;DHT22;16677;52.224;7.484;2022-12-18T15:20:44;0.30;1.00
29777;DHT22;16677;52.224;7.484;2022-12-18T15:23:52;0.30;1.00
29777;DHT22;16677;52.224;7.484;2022-12-18T15:26:20;0.30;1.00
29777;DHT22;16677;52.224;7.484;2022-12-18T15:36:21;0.40;1.00
29777;DHT22;16677;52.224;7.484;2022-12-18T15:38:53;0.40;1.00
29777;DHT22;16677;52.224;7.484;2022-12-18T15:41:27;0.40;1.00
29777;DHT22;16677;52.224;7.484;2022-12-18T15:43:54;0.50;1.00
29777;DHT22;16677;52.224;7.484;2022-12-18T15:46:24;0.60;1.00
29777;DHT22;16677;52.224;7.484;2022-12-18T15:48:53;0.50;1.00
29777;DHT22;16677;52.224;7.484;2022-12-18T15:51:35;0.60;1.00
29777;DHT22;16677;52.224;7.484;2022-12-18T15:54:05;0.60;1.00
29777;DHT22;16677;52.224;7.484;2022-12-18T15:56:32;0.50;1.00
29777;DHT22;16677;52.224;7.484;2022-12-18T15:59:19;0.60;1.00
29777;DHT22;16677;52.224;7.484;2022-12-18T16:01:48;0.50;1.00
29777;DHT22;16677;52.224;7.484;2022-12-18T16:04:18;0.60;1.00
29777;DHT22;16677;52.224;7.484;2022-12-18T16:06:48;0.60;1.00
29777;DHT22;16677;52.224;7.484;2022-12-18T16:09:36;0.60;1.00
29777;DHT22;16677;52.224;7.484;2022-12-18T16:12:03;0.60;1.00
29777;DHT22;16677;52.224;7.484;2022-12-18T16:14:31;0.60;1.00
29777;DHT22;16677;52.224;7.484;2022-12-18T16:17:01;0.60;1.00
29777;DHT22;16677;52.224;7.484;2022-12-18T16:19:29;0.60;1.00
29777;DHT22;16677;52.224;7.484;2022-12-18T16:21:57;0.60;1.00
29777;DHT22;16677;52.224;7.484;2022-12-18T16:24:27;0.60;1.00
29777;DHT22;16677;52.224;7.484;2022-12-18T16:26:57;0.70;1.00
29777;DHT22;16677;52.224;7.484;2022-12-18T16:29:27;0.70;1.00
29777;DHT22;16677;52.224;7.484;2022-12-18T16:31:59;0.70;1.00
29777;DHT22;16677;52.224;7.484;2022-12-18T16:34:33;0.80;1.00
29777;DHT22;16677;52.224;7.484;2022-12-18T16:37:04;0.70;1.00
29777;DHT22;16677;52.224;7.484;2022-12-18T16:39:35;0.70;1.00
29777;DHT22;16677;52.224;7.484;2022-12-18T16:42:25;0.80;1.00
29777;DHT22;16677;52.224;7.484;2022-12-18T16:44:50;0.80;1.00
29777;DHT22;16677;52.224;7.484;2022-12-18T16:47:18;0.80;1.00
29777;DHT22;16677;52.224;7.484;2022-12-18T16:49:45;0.80;1.00
29777;DHT22;16677;52.224;7.484;2022-12-18T16:52:12;0.80;1.00
29777;DHT22;16677;52.224;7.484;2022-12-18T16:54:39;0.80;1.00
29777;DHT22;16677;52.224;7.484;2022-12-18T16:57:08;0.80;1.00
29777;DHT22;16677;52.224;7.484;2022-12-18T16:59:35;0.80;1.00
29777;DHT22;16677;52.224;7.484;2022-12-18T17:02:02;0.80;1.00
29777;DHT22;16677;52.224;7.484;2022-12-18T17:04:29;0.70;1.00
29777;DHT22;16677;52.224;7.484;2022-12-18T17:06:56;0.70;1.00
29777;DHT22;16677;52.224;7.484;2022-12-18T17:09:23;0.80;1.00
29777;DHT22;16677;52.224;7.484;2022-12-18T17:11:53;0.70;1.00
29777;DHT22;16677;52.224;7.484;2022-12-18T17:14:22;0.70;1.00
29777;DHT22;16677;52.224;7.484;2022-12-18T17:16:50;0.70;1.00
29777;DHT22;16677;52.224;7.484;2022-12-18T17:19:37;0.80;1.00
29777;DHT22;16677;52.224;7.484;2022-12-18T17:22:04;0.80;1.00
29777;DHT22;16677;52.224;7.484;2022-12-18T17:24:31;0.80;1.00
29777;DHT22;16677;52.224;7.484;2022-12-18T17:27:01;0.70;1.00
29777;DHT22;16677;52.224;7.484;2022-12-18T17:29:29;0.70;1.00
29777;DHT22;16677;52.224;7.484;2022-12-18T17:31:56;0.70;1.00
29777;DHT22;16677;52.224;7.484;2022-12-18T17:34:26;0.80;1.00
29777;DHT22;16677;52.224;7.484;2022-12-18T17:36:53;0.80;1.00
29777;DHT22;16677;52.224;7.484;2022-12-18T17:39:20;0.80;1.00
29777;DHT22;16677;52.224;7.484;2022-12-18T17:41:47;0.80;1.00
29777;DHT22;16677;52.224;7.484;2022-12-18T17:44:15;0.70;1.00
29777;DHT22;16677;52.224;7.484;2022-12-18T17:46:43;0.70;1.00
29777;DHT22;16677;52.224;7.484;2022-12-18T17:49:10;0.70;1.00
29777;DHT22;16677;52.224;7.484;2022-12-18T17:51:37;0.70;1.00
29777;DHT22;16677;52.224;7.484;2022-12-18T17:54:04;0.70;1.00
29777;DHT22;16677;52.224;7.484;2022-12-18T17:56:31;0.60;1.00
29777;DHT22;16677;52.224;7.484;2022-12-18T17:58:59;0.60;1.00